sensor_id;sensor_type;location;lat;lon;timestamp;pressure;altitude;pressure_sealevel;temperature;humidity
68525;BME280;55524;51.380;13.372;2023-01-29T00:01:54;101894.59;;;-1.87;91.08
68525;BME280;55524;51.380;13.372;2023-01-29T00:04:22;101902.16;;;-1.93;92.09
68525;BME280;55524;51.380;13.372;2023-01-29T00:06:48;101895.88;;;-1.99;91.75
68525;BME280;55524;51.380;13.372;2023-01-29T00:09:14;101883.66;;;-2.03;91.60
68525;BME280;55524;51.380;13.372;2023-01-29T00:11:41;101889.50;;;-2.08;91.35
68525;BME280;55524;51.380;13.372;2023-01-29T00:14:07;101889.31;;;-2.13;91.52
68525;BME280;55524;51.380;13.372;2023-01-29T00:16:34;101887.50;;;-2.15;91.74
68525;BME280;55524;51.380;13.372;2023-01-29T00:19:01;101873.63;;;-2.17;91.77
68525;BME280;55524;51.380;13.372;2023-01-29T00:21:28;101873.38;;;-2.24;92.30
68525;BME280;55524;51.380;13.372;2023-01-29T00:23:56;101876.81;;;-2.25;92.17
68525;BME280;55524;51.380;13.372;2023-01-29T00:26:23;101865.38;;;-2.30;92.02
68525;BME280;55524;51.380;13.372;2023-01-29T00:28:49;101871.03;;;-2.40;92.45
68525;BME280;55524;51.380;13.372;2023-01-29T00:31:18;101870.28;;;-2.37;92.62
68525;BME280;55524;51.380;13.372;2023-01-29T00:33:45;101868.63;;;-2.35;92.79
68525;BME280;55524;51.380;13.372;2023-01-29T00:36:13;101863.91;;;-2.45;92.79
68525;BME280;55524;51.380;13.372;2023-01-29T00:38:40;101864.56;;;-2.51;93.19
68525;BME280;55524;51.380;13.372;2023-01-29T00:41:14;101872.97;;;-2.57;93.45
68525;BME280;55524;51.380;13.372;2023-01-29T00:44:00;101873.97;;;-2.53;93.50
68525;BME280;55524;51.380;13.372;2023-01-29T00:46:45;101885.97;;;-2.55;93.42
68525;BME280;55524;51.380;13.372;2023-01-29T00:49:11;101884.78;;;-2.63;93.08
68525;BME280;55524;51.380;13.372;2023-01-29T00:51:38;101887.94;;;-2.70;93.79
68525;BME280;55524;51.380;13.372;2023-01-29T00:54:05;101883.47;;;-2.75;94.31
68525;BME280;55524;51.380;13.372;2023-01-29T00:56:33;101874.78;;;-2.77;93.75
68525;BME280;55524;51.380;13.372;2023-01-29T00:59:00;101865.00;;;-2.84;94.61
68525;BME280;55524;51.380;13.372;2023-01-29T01:01:27;101882.97;;;-2.87;95.37
68525;BME280;55524;51.380;13.372;2023-01-29T01:04:12;101881.03;;;-2.92;95.92
68525;BME280;55524;51.380;13.372;2023-01-29T01:06:42;101873.19;;;-2.94;96.28
68525;BME280;55524;51.380;13.372;2023-01-29T01:09:09;101866.22;;;-2.97;96.50
68525;BME280;55524;51.380;13.372;2023-01-29T01:11:54;101873.56;;;-3.06;96.85
68525;BME280;55524;51.380;13.372;2023-01-29T01:14:21;101868.22;;;-3.10;97.19
68525;BME280;55524;51.380;13.372;2023-01-29T01:16:47;101867.16;;;-3.15;97.51
68525;BME280;55524;51.380;13.372;2023-01-29T01:19:15;101864.44;;;-3.18;97.41
68525;BME280;55524;51.380;13.372;2023-01-29T01:21:41;101859.28;;;-3.18;97.35
68525;BME280;55524;51.380;13.372;2023-01-29T01:24:13;101842.84;;;-3.20;97.10
68525;BME280;55524;51.380;13.372;2023-01-29T01:26:39;101849.81;;;-3.18;96.46
68525;BME280;55524;51.380;13.372;2023-01-29T01:29:06;101846.41;;;-3.17;96.71
68525;BME280;55524;51.380;13.372;2023-01-29T01:31:32;101843.81;;;-3.17;96.62
68525;BME280;55524;51.380;13.372;2023-01-29T01:33:59;101844.50;;;-3.21;97.36
68525;BME280;55524;51.380;13.372;2023-01-29T01:36:25;101847.88;;;-3.24;97.43
68525;BME280;55524;51.380;13.372;2023-01-29T01:38:51;101842.84;;;-3.20;96.65
68525;BME280;55524;51.380;13.372;2023-01-29T01:41:20;101842.56;;;-3.27;97.10
68525;BME280;55524;51.380;13.372;2023-01-29T01:43:59;101845.28;;;-3.24;96.87
68525;BME280;55524;51.380;13.372;2023-01-29T01:46:30;101841.88;;;-3.23;97.31
68525;BME280;55524;51.380;13.372;2023-01-29T01:49:13;101831.41;;;-3.26;97.21
68525;BME280;55524;51.380;13.372;2023-01-29T01:51:46;101819.44;;;-3.24;96.77
68525;BME280;55524;51.380;13.372;2023-01-29T01:56:50;101821.75;;;-3.30;96.91
68525;BME280;55524;51.380;13.372;2023-01-29T01:59:21;101834.63;;;-3.31;97.83
68525;BME280;55524;51.380;13.372;2023-01-29T02:01:51;101823.34;;;-3.33;98.13
68525;BME280;55524;51.380;13.372;2023-01-29T02:04:23;101818.94;;;-3.36;98.03
68525;BME280;55524;51.380;13.372;2023-01-29T02:07:11;101821.53;;;-3.36;98.29
68525;BME280;55524;51.380;13.372;2023-01-29T02:10:09;101823.28;;;-3.35;97.84
68525;BME280;55524;51.380;13.372;2023-01-29T02:12:37;101826.00;;;-3.32;97.84
68525;BME280;55524;51.380;13.372;2023-01-29T02:15:05;101821.56;;;-3.34;97.66
68525;BME280;55524;51.380;13.372;2023-01-29T02:17:31;101821.44;;;-3.37;98.13
68525;BME280;55524;51.380;13.372;2023-01-29T02:20:17;101827.47;;;-3.37;98.11
68525;BME280;55524;51.380;13.372;2023-01-29T02:31:35;101838.47;;;-3.42;98.84
68525;BME280;55524;51.380;13.372;2023-01-29T02:39:50;101837.72;;;-3.40;100.00
68525;BME280;55524;51.380;13.372;2023-01-29T02:42:30;101837.59;;;-3.43;100.00
68525;BME280;55524;51.380;13.372;2023-01-29T02:47:51;101839.53;;;-3.37;99.47
68525;BME280;55524;51.380;13.372;2023-01-29T02:50:49;101837.72;;;-3.40;99.93
68525;BME280;55524;51.380;13.372;2023-01-29T02:56:06;101816.91;;;-3.43;100.00
68525;BME280;55524;51.380;13.372;2023-01-29T03:01:15;101825.34;;;-3.47;100.00
68525;BME280;55524;51.380;13.372;2023-01-29T03:03:47;101822.97;;;-3.42;100.00
68525;BME280;55524;51.380;13.372;2023-01-29T03:06:38;101822.09;;;-3.43;100.00
68525;BME280;55524;51.380;13.372;2023-01-29T03:09:21;101825.69;;;-3.39;100.00
68525;BME280;55524;51.380;13.372;2023-01-29T03:11:53;101829.84;;;-3.43;100.00
68525;BME280;55524;51.380;13.372;2023-01-29T03:14:28;101819.50;;;-3.43;100.00
68525;BME280;55524;51.380;13.372;2023-01-29T03:17:15;101822.22;;;-3.40;100.00
68525;BME280;55524;51.380;13.372;2023-01-29T03:19:45;101813.63;;;-3.39;100.00
68525;BME280;55524;51.380;13.372;2023-01-29T03:22:14;101809.47;;;-3.35;100.00
68525;BME280;55524;51.380;13.372;2023-01-29T03:24:54;101808.72;;;-3.33;100.00
68525;BME280;55524;51.380;13.372;2023-01-29T03:27:50;101801.47;;;-3.41;100.00
68525;BME280;55524;51.380;13.372;2023-01-29T03:30:40;101795.69;;;-3.36;100.00
68525;BME280;55524;51.380;13.372;2023-01-29T03:33:27;101795.88;;;-3.31;100.00
68525;BME280;55524;51.380;13.372;2023-01-29T03:35:58;101800.16;;;-3.32;99.71
68525;BME280;55524;51.380;13.372;2023-01-29T03:38:27;101813.06;;;-3.32;100.00
68525;BME280;55524;51.380;13.372;2023-01-29T03:41:07;101810.41;;;-3.33;100.00
68525;BME280;55524;51.380;13.372;2023-01-29T03:43:49;101798.31;;;-3.34;100.00
68525;BME280;55524;51.380;13.372;2023-01-29T03:46:40;101798.44;;;-3.31;100.00
68525;BME280;55524;51.380;13.372;2023-01-29T04:00:43;101790.84;;;-3.28;99.46
68525;BME280;55524;51.380;13.372;2023-01-29T04:05:31;101790.56;;;-3.34;100.00
68525;BME280;55524;51.380;13.372;2023-01-29T04:08:06;101785.66;;;-3.28;99.68
68525;BME280;55524;51.380;13.372;2023-01-29T04:10:34;101783.78;;;-3.32;100.00
68525;BME280;55524;51.380;13.372;2023-01-29T04:13:10;101783.88;;;-3.29;99.88
68525;BME280;55524;51.380;13.372;2023-01-29T04:15:44;101779.47;;;-3.32;100.00
68525;BME280;55524;51.380;13.372;2023-01-29T04:18:12;101778.59;;;-3.32;100.00
68525;BME280;55524;51.380;13.372;2023-01-29T04:20:39;101776.19;;;-3.28;100.00
68525;BME280;55524;51.380;13.372;2023-01-29T04:23:16;101765.41;;;-3.17;99.05
68525;BME280;55524;51.380;13.372;2023-01-29T04:25:45;101761.09;;;-3.17;98.58
68525;BME280;55524;51.380;13.372;2023-01-29T04:28:24;101749.25;;;-3.12;98.67
68525;BME280;55524;51.380;13.372;2023-01-29T04:31:04;101748.31;;;-3.14;98.59
68525;BME280;55524;51.380;13.372;2023-01-29T04:33:49;101749.19;;;-3.13;98.76
68525;BME280;55524;51.380;13.372;2023-01-29T04:39:20;101739.97;;;-3.07;97.84
68525;BME280;55524;51.380;13.372;2023-01-29T04:50:00;101723.81;;;-3.01;98.05
68525;BME280;55524;51.380;13.372;2023-01-29T04:55:23;101722.44;;;-2.93;98.21
68525;BME280;55524;51.380;13.372;2023-01-29T05:00:49;101714.84;;;-2.88;97.99
68525;BME280;55524;51.380;13.372;2023-01-29T05:03:20;101709.84;;;-2.84;97.85
68525;BME280;55524;51.380;13.372;2023-01-29T05:05:49;101700.25;;;-2.86;97.76
68525;BME280;55524;51.380;13.372;2023-01-29T05:08:18;101708.88;;;-2.86;97.33
68525;BME280;55524;51.380;13.372;2023-01-29T05:10:48;101702.06;;;-2.84;97.56
68525;BME280;55524;51.380;13.372;2023-01-29T05:13:15;101696.91;;;-2.84;97.33
68525;BME280;55524;51.380;13.372;2023-01-29T05:15:47;101692.66;;;-2.82;97.03
68525;BME280;55524;51.380;13.372;2023-01-29T05:18:15;101698.66;;;-2.83;96.37
68525;BME280;55524;51.380;13.372;2023-01-29T05:20:43;101693.59;;;-2.80;96.34
68525;BME280;55524;51.380;13.372;2023-01-29T05:23:17;101695.34;;;-2.79;96.80
68525;BME280;55524;51.380;13.372;2023-01-29T05:25:44;101688.47;;;-2.78;96.59
68525;BME280;55524;51.380;13.372;2023-01-29T05:28:12;101676.53;;;-2.75;96.04
68525;BME280;55524;51.380;13.372;2023-01-29T05:30:49;101676.53;;;-2.75;95.80
68525;BME280;55524;51.380;13.372;2023-01-29T05:33:21;101683.47;;;-2.74;96.71
68525;BME280;55524;51.380;13.372;2023-01-29T05:35:47;101681.00;;;-2.70;96.95
68525;BME280;55524;51.380;13.372;2023-01-29T05:38:14;101670.63;;;-2.72;96.75
68525;BME280;55524;51.380;13.372;2023-01-29T05:40:41;101675.91;;;-2.69;96.29
68525;BME280;55524;51.380;13.372;2023-01-29T05:43:17;101673.31;;;-2.69;96.29
68525;BME280;55524;51.380;13.372;2023-01-29T05:45:50;101675.28;;;-2.62;95.73
68525;BME280;55524;51.380;13.372;2023-01-29T05:48:17;101681.16;;;-2.66;94.46
68525;BME280;55524;51.380;13.372;2023-01-29T05:50:43;101683.75;;;-2.66;95.89
68525;BME280;55524;51.380;13.372;2023-01-29T05:53:09;101684.63;;;-2.65;95.47
68525;BME280;55524;51.380;13.372;2023-01-29T05:55:35;101677.81;;;-2.63;95.65
68525;BME280;55524;51.380;13.372;2023-01-29T05:58:02;101686.47;;;-2.63;95.12
68525;BME280;55524;51.380;13.372;2023-01-29T06:00:28;101686.75;;;-2.55;94.02
68525;BME280;55524;51.380;13.372;2023-01-29T06:02:54;101680.69;;;-2.56;94.29
68525;BME280;55524;51.380;13.372;2023-01-29T06:05:21;101684.91;;;-2.58;94.39
68525;BME280;55524;51.380;13.372;2023-01-29T06:07:47;101685.84;;;-2.56;94.19
68525;BME280;55524;51.380;13.372;2023-01-29T06:10:16;101690.19;;;-2.55;94.29
68525;BME280;55524;51.380;13.372;2023-01-29T06:12:43;101699.63;;;-2.57;94.91
68525;BME280;55524;51.380;13.372;2023-01-29T06:15:10;101696.25;;;-2.54;94.43
68525;BME280;55524;51.380;13.372;2023-01-29T06:17:37;101700.66;;;-2.52;94.88
68525;BME280;55524;51.380;13.372;2023-01-29T06:20:04;101703.53;;;-2.44;94.22
68525;BME280;55524;51.380;13.372;2023-01-29T06:22:31;101709.53;;;-2.45;93.46
68525;BME280;55524;51.380;13.372;2023-01-29T06:24:57;101702.09;;;-2.36;94.19
68525;BME280;55524;51.380;13.372;2023-01-29T06:27:23;101706.00;;;-2.47;94.45
68525;BME280;55524;51.380;13.372;2023-01-29T06:29:50;101716.50;;;-2.42;94.28
68525;BME280;55524;51.380;13.372;2023-01-29T06:32:16;101715.03;;;-2.36;94.45
68525;BME280;55524;51.380;13.372;2023-01-29T06:34:42;101707.03;;;-2.42;95.28
68525;BME280;55524;51.380;13.372;2023-01-29T06:37:09;101707.03;;;-2.42;95.62
68525;BME280;55524;51.380;13.372;2023-01-29T06:39:35;101732.28;;;-2.36;95.25
68525;BME280;55524;51.380;13.372;2023-01-29T06:42:01;101739.09;;;-2.38;94.81
68525;BME280;55524;51.380;13.372;2023-01-29T06:44:27;101746.97;;;-2.35;94.17
68525;BME280;55524;51.380;13.372;2023-01-29T06:46:54;101753.97;;;-2.33;94.43
68525;BME280;55524;51.380;13.372;2023-01-29T06:49:20;101756.56;;;-2.33;94.18
68525;BME280;55524;51.380;13.372;2023-01-29T06:51:46;101755.72;;;-2.32;94.45
68525;BME280;55524;51.380;13.372;2023-01-29T06:54:13;101783.38;;;-2.31;94.96
68525;BME280;55524;51.380;13.372;2023-01-29T06:56:39;101777.47;;;-2.27;94.83
68525;BME280;55524;51.380;13.372;2023-01-29T06:59:05;101779.06;;;-2.30;94.88
68525;BME280;55524;51.380;13.372;2023-01-29T07:01:31;101780.03;;;-2.28;94.53
68525;BME280;55524;51.380;13.372;2023-01-29T07:03:58;101782.66;;;-2.27;94.40
68525;BME280;55524;51.380;13.372;2023-01-29T07:06:28;101776.72;;;-2.24;94.53
68525;BME280;55524;51.380;13.372;2023-01-29T07:08:54;101776.72;;;-2.24;94.71
68525;BME280;55524;51.380;13.372;2023-01-29T07:11:21;101784.53;;;-2.23;95.47
68525;BME280;55524;51.380;13.372;2023-01-29T07:13:47;101786.53;;;-2.15;95.54
68525;BME280;55524;51.380;13.372;2023-01-29T07:16:14;101794.13;;;-2.20;96.45
68525;BME280;55524;51.380;13.372;2023-01-29T07:18:40;101784.66;;;-2.19;97.80
68525;BME280;55524;51.380;13.372;2023-01-29T07:21:07;101787.72;;;-2.30;100.00
68525;BME280;55524;51.380;13.372;2023-01-29T07:23:34;101794.59;;;-2.30;100.00
68525;BME280;55524;51.380;13.372;2023-01-29T07:26:04;101789.25;;;-2.35;100.00
68525;BME280;55524;51.380;13.372;2023-01-29T07:28:34;101792.00;;;-2.30;100.00
68525;BME280;55524;51.380;13.372;2023-01-29T07:31:00;101786.75;;;-2.33;100.00
68525;BME280;55524;51.380;13.372;2023-01-29T07:33:27;101791.25;;;-2.28;100.00
68525;BME280;55524;51.380;13.372;2023-01-29T07:35:53;101805.16;;;-2.26;100.00
68525;BME280;55524;51.380;13.372;2023-01-29T07:38:19;101799.25;;;-2.21;99.53
68525;BME280;55524;51.380;13.372;2023-01-29T07:40:46;101796.91;;;-2.14;99.72
68525;BME280;55524;51.380;13.372;2023-01-29T07:43:14;101784.69;;;-2.18;98.27
68525;BME280;55524;51.380;13.372;2023-01-29T07:45:41;101783.22;;;-2.11;97.77
68525;BME280;55524;51.380;13.372;2023-01-29T07:48:10;101781.66;;;-2.06;97.48
68525;BME280;55524;51.380;13.372;2023-01-29T07:50:38;101786.84;;;-2.06;97.14
68525;BME280;55524;51.380;13.372;2023-01-29T07:53:04;101773.25;;;-2.01;98.06
68525;BME280;55524;51.380;13.372;2023-01-29T07:55:31;101765.31;;;-2.05;97.71
68525;BME280;55524;51.380;13.372;2023-01-29T07:57:59;101756.00;;;-2.00;96.91
68525;BME280;55524;51.380;13.372;2023-01-29T08:00:26;101759.63;;;-1.95;97.48
68525;BME280;55524;51.380;13.372;2023-01-29T08:02:53;101755.13;;;-2.01;97.79
68525;BME280;55524;51.380;13.372;2023-01-29T08:05:19;101737.09;;;-1.98;96.71
68525;BME280;55524;51.380;13.372;2023-01-29T08:07:51;101731.00;;;-1.98;96.72
68525;BME280;55524;51.380;13.372;2023-01-29T08:10:17;101725.91;;;-1.96;96.60
68525;BME280;55524;51.380;13.372;2023-01-29T08:12:44;101725.16;;;-1.94;96.65
68525;BME280;55524;51.380;13.372;2023-01-29T08:15:10;101727.00;;;-1.90;96.39
68525;BME280;55524;51.380;13.372;2023-01-29T08:17:36;101731.28;;;-1.90;97.53
68525;BME280;55524;51.380;13.372;2023-01-29T08:20:05;101722.75;;;-1.88;96.81
68525;BME280;55524;51.380;13.372;2023-01-29T08:22:32;101727.16;;;-1.85;97.37
68525;BME280;55524;51.380;13.372;2023-01-29T08:24:59;101720.41;;;-1.80;97.27
68525;BME280;55524;51.380;13.372;2023-01-29T08:27:25;101720.31;;;-1.83;97.39
68525;BME280;55524;51.380;13.372;2023-01-29T08:29:51;101716.00;;;-1.83;95.62
68525;BME280;55524;51.380;13.372;2023-01-29T08:32:18;101718.66;;;-1.81;95.42
68525;BME280;55524;51.380;13.372;2023-01-29T08:34:44;101715.47;;;-1.74;95.62
68525;BME280;55524;51.380;13.372;2023-01-29T08:37:10;101731.00;;;-1.74;95.59
68525;BME280;55524;51.380;13.372;2023-01-29T08:39:36;101733.81;;;-1.66;95.92
68525;BME280;55524;51.380;13.372;2023-01-29T08:42:03;101720.06;;;-1.65;94.45
68525;BME280;55524;51.380;13.372;2023-01-29T08:44:29;101728.75;;;-1.63;94.71
68525;BME280;55524;51.380;13.372;2023-01-29T08:46:55;101729.53;;;-1.66;94.60
68525;BME280;55524;51.380;13.372;2023-01-29T08:49:21;101725.50;;;-1.58;94.68
68525;BME280;55524;51.380;13.372;2023-01-29T08:51:48;101715.84;;;-1.62;94.84
68525;BME280;55524;51.380;13.372;2023-01-29T08:54:16;101709.09;;;-1.57;94.05
68525;BME280;55524;51.380;13.372;2023-01-29T08:56:42;101712.59;;;-1.55;94.44
68525;BME280;55524;51.380;13.372;2023-01-29T08:59:12;101711.66;;;-1.58;93.73
68525;BME280;55524;51.380;13.372;2023-01-29T09:01:38;101720.59;;;-1.49;95.21
68525;BME280;55524;51.380;13.372;2023-01-29T09:04:05;101722.66;;;-1.65;93.98
68525;BME280;55524;51.380;13.372;2023-01-29T09:06:32;101723.78;;;-1.57;94.05
68525;BME280;55524;51.380;13.372;2023-01-29T09:08:58;101734.25;;;-1.54;94.06
68525;BME280;55524;51.380;13.372;2023-01-29T09:11:24;101718.78;;;-1.51;94.61
68525;BME280;55524;51.380;13.372;2023-01-29T09:13:52;101717.78;;;-1.55;94.34
68525;BME280;55524;51.380;13.372;2023-01-29T09:16:18;101717.13;;;-1.49;93.81
68525;BME280;55524;51.380;13.372;2023-01-29T09:18:44;101711.00;;;-1.51;94.13
68525;BME280;55524;51.380;13.372;2023-01-29T09:21:11;101709.59;;;-1.41;94.19
68525;BME280;55524;51.380;13.372;2023-01-29T09:23:37;101715.66;;;-1.41;93.27
68525;BME280;55524;51.380;13.372;2023-01-29T09:26:04;101718.09;;;-1.45;93.85
68525;BME280;55524;51.380;13.372;2023-01-29T09:28:32;101704.16;;;-1.49;93.71
68525;BME280;55524;51.380;13.372;2023-01-29T09:31:01;101703.34;;;-1.48;93.75
68525;BME280;55524;51.380;13.372;2023-01-29T09:33:28;101698.22;;;-1.46;94.07
68525;BME280;55524;51.380;13.372;2023-01-29T09:35:54;101684.59;;;-1.39;93.46
68525;BME280;55524;51.380;13.372;2023-01-29T09:38:21;101682.94;;;-1.37;93.68
68525;BME280;55524;51.380;13.372;2023-01-29T09:44:01;101689.97;;;-1.33;95.38
68525;BME280;55524;51.380;13.372;2023-01-29T09:51:57;101688.16;;;-1.36;94.57
68525;BME280;55524;51.380;13.372;2023-01-29T09:54:52;101688.00;;;-1.42;93.79
68525;BME280;55524;51.380;13.372;2023-01-29T09:57:33;101693.25;;;-1.39;93.84
68525;BME280;55524;51.380;13.372;2023-01-29T10:00:04;101703.47;;;-1.43;94.61
68525;BME280;55524;51.380;13.372;2023-01-29T10:02:56;101696.63;;;-1.41;94.89
68525;BME280;55524;51.380;13.372;2023-01-29T10:08:23;101693.34;;;-1.36;95.90
68525;BME280;55524;51.380;13.372;2023-01-29T10:14:22;101685.16;;;-1.50;99.42
68525;BME280;55524;51.380;13.372;2023-01-29T10:23:14;101677.66;;;-1.40;99.68
68525;BME280;55524;51.380;13.372;2023-01-29T10:25:39;101671.63;;;-1.39;98.05
68525;BME280;55524;51.380;13.372;2023-01-29T10:28:31;101670.09;;;-1.34;98.10
68525;BME280;55524;51.380;13.372;2023-01-29T10:31:11;101669.34;;;-1.30;97.79
68525;BME280;55524;51.380;13.372;2023-01-29T10:33:48;101667.72;;;-1.27;97.29
68525;BME280;55524;51.380;13.372;2023-01-29T10:36:48;101655.03;;;-1.17;98.74
68525;BME280;55524;51.380;13.372;2023-01-29T10:39:23;101650.94;;;-1.09;97.61
68525;BME280;55524;51.380;13.372;2023-01-29T10:58:45;101607.41;;;-1.19;96.37
68525;BME280;55524;51.380;13.372;2023-01-29T11:01:15;101601.25;;;-1.23;96.61
68525;BME280;55524;51.380;13.372;2023-01-29T11:03:41;101598.75;;;-1.20;96.73
68525;BME280;55524;51.380;13.372;2023-01-29T11:11:35;101587.97;;;-1.05;97.42
68525;BME280;55524;51.380;13.372;2023-01-29T11:14:09;101591.69;;;-0.95;98.17
68525;BME280;55524;51.380;13.372;2023-01-29T11:16:46;101580.44;;;-0.96;96.45
68525;BME280;55524;51.380;13.372;2023-01-29T11:19:13;101576.00;;;-1.00;95.47
68525;BME280;55524;51.380;13.372;2023-01-29T11:24:19;101579.66;;;-0.92;96.95
68525;BME280;55524;51.380;13.372;2023-01-29T11:26:47;101571.97;;;-0.89;96.77
68525;BME280;55524;51.380;13.372;2023-01-29T11:29:40;101570.34;;;-0.85;96.04
68525;BME280;55524;51.380;13.372;2023-01-29T11:32:13;101570.56;;;-0.78;96.21
68525;BME280;55524;51.380;13.372;2023-01-29T11:37:43;101563.44;;;-0.85;95.53
68525;BME280;55524;51.380;13.372;2023-01-29T11:42:49;101579.66;;;-0.60;95.37
68525;BME280;55524;51.380;13.372;2023-01-29T11:45:27;101558.78;;;-0.65;94.17
68525;BME280;55524;51.380;13.372;2023-01-29T11:47:57;101534.84;;;-0.55;95.51
68525;BME280;55524;51.380;13.372;2023-01-29T11:50:29;101525.03;;;-0.66;94.59
68525;BME280;55524;51.380;13.372;2023-01-29T11:52:58;101524.56;;;-0.50;94.19
68525;BME280;55524;51.380;13.372;2023-01-29T11:55:31;101510.53;;;-0.58;93.54
68525;BME280;55524;51.380;13.372;2023-01-29T11:58:05;101510.91;;;-0.43;93.40
68525;BME280;55524;51.380;13.372;2023-01-29T12:00:38;101509.41;;;-0.33;93.77
68525;BME280;55524;51.380;13.372;2023-01-29T12:03:39;101507.69;;;-0.33;93.30
68525;BME280;55524;51.380;13.372;2023-01-29T12:06:23;101504.25;;;-0.32;92.69
68525;BME280;55524;51.380;13.372;2023-01-29T12:08:58;101496.19;;;-0.42;92.93
68525;BME280;55524;51.380;13.372;2023-01-29T12:11:31;101492.09;;;-0.33;91.61
68525;BME280;55524;51.380;13.372;2023-01-29T12:14:04;101491.41;;;-0.26;91.49
68525;BME280;55524;51.380;13.372;2023-01-29T12:19:10;101487.28;;;-0.17;91.54
68525;BME280;55524;51.380;13.372;2023-01-29T12:30:21;101479.41;;;-0.20;91.62
68525;BME280;55524;51.380;13.372;2023-01-29T12:35:34;101467.19;;;-0.25;91.87
68525;BME280;55524;51.380;13.372;2023-01-29T12:38:13;101472.47;;;-0.20;91.46
68525;BME280;55524;51.380;13.372;2023-01-29T12:40:50;101468.84;;;-0.28;91.82
68525;BME280;55524;51.380;13.372;2023-01-29T12:43:44;101461.94;;;-0.28;91.33
68525;BME280;55524;51.380;13.372;2023-01-29T12:46:22;101468.13;;;-0.22;91.42
68525;BME280;55524;51.380;13.372;2023-01-29T12:48:50;101462.75;;;-0.29;91.52
68525;BME280;55524;51.380;13.372;2023-01-29T12:51:32;101457.75;;;-0.21;91.61
68525;BME280;55524;51.380;13.372;2023-01-29T12:54:11;101461.19;;;-0.22;91.49
68525;BME280;55524;51.380;13.372;2023-01-29T12:56:49;101467.59;;;-0.08;92.34
68525;BME280;55524;51.380;13.372;2023-01-29T13:01:54;101454.03;;;0.06;93.03
68525;BME280;55524;51.380;13.372;2023-01-29T13:04:44;101441.00;;;0.04;91.21
68525;BME280;55524;51.380;13.372;2023-01-29T13:07:23;101440.88;;;-0.02;91.29
68525;BME280;55524;51.380;13.372;2023-01-29T13:09:54;101432.44;;;0.08;91.37
68525;BME280;55524;51.380;13.372;2023-01-29T13:12:25;101431.59;;;0.09;91.84
68525;BME280;55524;51.380;13.372;2023-01-29T13:15:00;101442.84;;;0.08;90.61
68525;BME280;55524;51.380;13.372;2023-01-29T13:17:43;101454.03;;;0.06;90.81
68525;BME280;55524;51.380;13.372;2023-01-29T13:20:38;101445.47;;;0.11;91.27
68525;BME280;55524;51.380;13.372;2023-01-29T13:23:33;101441.38;;;0.21;91.00
68525;BME280;55524;51.380;13.372;2023-01-29T13:26:01;101437.75;;;0.14;90.39
68525;BME280;55524;51.380;13.372;2023-01-29T13:28:27;101439.50;;;0.15;90.82
68525;BME280;55524;51.380;13.372;2023-01-29T13:31:35;101441.13;;;0.10;90.03
68525;BME280;55524;51.380;13.372;2023-01-29T13:34:15;101426.34;;;0.08;90.07
68525;BME280;55524;51.380;13.372;2023-01-29T13:36:45;101420.25;;;0.06;90.22
68525;BME280;55524;51.380;13.372;2023-01-29T13:39:35;101419.47;;;0.10;90.99
68525;BME280;55524;51.380;13.372;2023-01-29T13:42:21;101416.00;;;0.09;90.50
68525;BME280;55524;51.380;13.372;2023-01-29T13:44:50;101421.28;;;0.14;91.56
68525;BME280;55524;51.380;13.372;2023-01-29T13:50:41;101408.31;;;0.15;90.98
68525;BME280;55524;51.380;13.372;2023-01-29T13:52:55;101400.59;;;0.18;90.07
68525;BME280;55524;51.380;13.372;2023-01-29T13:55:39;101403.28;;;0.23;90.32
68525;BME280;55524;51.380;13.372;2023-01-29T13:58:16;101404.97;;;0.21;91.47
68525;BME280;55524;51.380;13.372;2023-01-29T14:05:40;101396.31;;;0.22;90.69
68525;BME280;55524;51.380;13.372;2023-01-29T14:10:40;101403.97;;;0.14;90.09
68525;BME280;55524;51.380;13.372;2023-01-29T14:15:44;101411.66;;;0.08;89.77
68525;BME280;55524;51.380;13.372;2023-01-29T14:18:15;101422.16;;;0.14;89.93
68525;BME280;55524;51.380;13.372;2023-01-29T14:25:51;101426.41;;;0.11;90.90
68525;BME280;55524;51.380;13.372;2023-01-29T14:28:25;101421.03;;;0.02;90.75
68525;BME280;55524;51.380;13.372;2023-01-29T14:30:54;101417.72;;;0.09;91.37
68525;BME280;55524;51.380;13.372;2023-01-29T14:35:56;101415.06;;;0.07;90.66
68525;BME280;55524;51.380;13.372;2023-01-29T14:38:24;101414.97;;;0.01;90.83
68525;BME280;55524;51.380;13.372;2023-01-29T14:41:07;101410.72;;;0.05;90.67
68525;BME280;55524;51.380;13.372;2023-01-29T14:43:34;101405.47;;;0.03;91.55
68525;BME280;55524;51.380;13.372;2023-01-29T14:49:49;101408.00;;;0.00;91.35
68525;BME280;55524;51.380;13.372;2023-01-29T14:52:16;101411.50;;;0.02;92.34
68525;BME280;55524;51.380;13.372;2023-01-29T14:54:45;101407.16;;;0.01;91.56
68525;BME280;55524;51.380;13.372;2023-01-29T14:57:15;101408.81;;;-0.03;92.10
68525;BME280;55524;51.380;13.372;2023-01-29T15:00:02;101401.03;;;-0.03;92.73
68525;BME280;55524;51.380;13.372;2023-01-29T15:02:56;101389.88;;;0.03;92.20
68525;BME280;55524;51.380;13.372;2023-01-29T15:05:30;101377.63;;;-0.03;92.13
68525;BME280;55524;51.380;13.372;2023-01-29T15:08:11;101375.13;;;0.01;92.14
68525;BME280;55524;51.380;13.372;2023-01-29T15:11:03;101377.50;;;-0.09;91.52
68525;BME280;55524;51.380;13.372;2023-01-29T15:14:01;101388.75;;;-0.10;90.80
68525;BME280;55524;51.380;13.372;2023-01-29T15:16:43;101385.34;;;-0.07;90.67
68525;BME280;55524;51.380;13.372;2023-01-29T15:19:25;101387.88;;;-0.10;91.57
68525;BME280;55524;51.380;13.372;2023-01-29T15:24:43;101372.13;;;-0.16;90.62
68525;BME280;55524;51.380;13.372;2023-01-29T15:27:18;101365.88;;;-0.26;91.73
68525;BME280;55524;51.380;13.372;2023-01-29T15:29:56;101366.84;;;-0.21;92.04
68525;BME280;55524;51.380;13.372;2023-01-29T15:32:27;101368.47;;;-0.26;92.11
68525;BME280;55524;51.380;13.372;2023-01-29T15:34:57;101365.88;;;-0.28;92.03
68525;BME280;55524;51.380;13.372;2023-01-29T15:37:26;101371.94;;;-0.27;93.07